createdAt,value
2018-02-18T00:00:14.767Z,1.12
2018-02-18T00:01:14.705Z,1.12
2018-02-18T00:02:14.709Z,1.12
2018-02-18T00:03:14.763Z,1.12
2018-02-18T00:04:14.729Z,1.12
2018-02-18T00:05:14.814Z,1.12
2018-02-18T00:06:14.751Z,1.12
2018-02-18T00:07:14.730Z,1.19
2018-02-18T00:08:14.736Z,1.12
2018-02-18T00:09:14.808Z,1.12
2018-02-18T00:10:14.919Z,1.12
2018-02-18T00:11:14.960Z,1.12
2018-02-18T00:12:14.946Z,1.12
2018-02-18T00:13:14.727Z,1.12
2018-02-18T00:14:14.903Z,1.12
2018-02-18T00:15:14.913Z,1.06
2018-02-18T00:16:14.908Z,1.12
2018-02-18T00:17:14.743Z,1.06
2018-02-18T00:18:14.763Z,1.06
2018-02-18T00:19:14.759Z,1.12
2018-02-18T00:20:14.784Z,1.06
2018-02-18T00:21:14.784Z,1.06
2018-02-18T00:22:14.741Z,1.06
2018-02-18T00:23:14.796Z,1
2018-02-18T00:24:14.826Z,1
2018-02-18T00:25:14.779Z,1.06
2018-02-18T00:26:14.785Z,1
2018-02-18T00:27:14.760Z,1.06
2018-02-18T00:28:14.770Z,1
2018-02-18T00:29:14.774Z,1
2018-02-18T00:30:15.350Z,1
2018-02-18T00:31:14.779Z,0.94
2018-02-18T00:32:14.793Z,0.94
2018-02-18T00:33:14.779Z,0.94
2018-02-18T00:34:14.784Z,0.94
2018-02-18T00:35:14.820Z,0.94
2018-02-18T00:36:14.808Z,0.88
2018-02-18T00:37:14.804Z,0.81
2018-02-18T00:38:14.790Z,0.81
2018-02-18T00:39:14.809Z,0.88
2018-02-18T00:40:14.846Z,0.88
2018-02-18T00:41:14.877Z,0.88
2018-02-18T00:42:14.841Z,0.88
2018-02-18T00:43:14.831Z,0.88
2018-02-18T00:44:14.837Z,0.94
2018-02-18T00:45:14.837Z,0.94
2018-02-18T00:46:14.844Z,0.88
2018-02-18T00:47:14.884Z,0.88
2018-02-18T00:48:14.855Z,0.94
2018-02-18T00:49:14.860Z,0.94
2018-02-18T00:50:14.850Z,0.88
2018-02-18T00:51:14.863Z,0.88
2018-02-18T00:52:14.876Z,0.88
2018-02-18T00:53:14.884Z,0.88
2018-02-18T00:54:15.028Z,0.88
2018-02-18T00:55:14.998Z,0.88
2018-02-18T00:56:14.872Z,0.81
2018-02-18T00:57:14.883Z,0.81
2018-02-18T00:58:15.061Z,0.81
2018-02-18T00:59:15.060Z,0.81
2018-02-18T01:00:15.052Z,0.75
2018-02-18T01:01:14.902Z,0.75
2018-02-18T01:02:14.905Z,0.75
2018-02-18T01:03:14.893Z,0.69
2018-02-18T01:04:14.923Z,0.69
2018-02-18T01:05:15.077Z,0.75
2018-02-18T01:06:15.053Z,0.75
2018-02-18T01:07:14.908Z,0.75
2018-02-18T01:08:14.915Z,0.75
2018-02-18T01:09:15.070Z,0.75
2018-02-18T01:10:15.094Z,0.75
2018-02-18T01:11:15.083Z,0.75
2018-02-18T01:12:15.081Z,0.75
2018-02-18T01:13:14.928Z,0.81
2018-02-18T01:14:15.153Z,0.81
2018-02-18T01:15:15.247Z,0.81
2018-02-18T01:16:15.099Z,0.81
2018-02-18T01:17:15.094Z,0.88
2018-02-18T01:18:15.121Z,0.81
2018-02-18T01:19:14.941Z,0.81
2018-02-18T01:20:14.997Z,0.75
2018-02-18T01:21:14.949Z,0.75
2018-02-18T01:22:14.955Z,0.75
2018-02-18T01:23:14.964Z,0.69
2018-02-18T01:24:14.969Z,0.69
2018-02-18T01:25:14.993Z,0.62
2018-02-18T01:26:14.956Z,0.62
2018-02-18T01:27:15.008Z,0.62
2018-02-18T01:28:15.132Z,0.69
2018-02-18T01:29:14.972Z,0.62
2018-02-18T01:30:14.970Z,0.62
2018-02-18T01:31:15.131Z,0.62
2018-02-18T01:32:14.983Z,0.69
2018-02-18T01:33:15.008Z,0.62
2018-02-18T01:34:14.994Z,0.62
2018-02-18T01:35:15.000Z,0.62
2018-02-18T01:36:15.181Z,0.69
2018-02-18T01:37:15.271Z,0.62
2018-02-18T01:38:15.011Z,0.62
2018-02-18T01:39:15.028Z,0.62
2018-02-18T01:40:15.022Z,0.62
2018-02-18T01:41:15.019Z,0.62
2018-02-18T01:42:15.053Z,0.62
2018-02-18T01:43:15.046Z,0.56
2018-02-18T01:44:15.035Z,0.56
2018-02-18T01:45:15.053Z,0.62
2018-02-18T01:46:15.042Z,0.62
2018-02-18T01:47:15.255Z,0.62
2018-02-18T01:48:15.059Z,0.56
2018-02-18T01:49:15.054Z,0.56
2018-02-18T01:50:15.063Z,0.56
2018-02-18T01:51:15.079Z,0.56
2018-02-18T01:52:15.109Z,0.56
2018-02-18T01:53:15.068Z,0.56
2018-02-18T01:54:15.059Z,0.5
2018-02-18T01:55:15.077Z,0.5
2018-02-18T01:56:15.086Z,0.5
2018-02-18T01:57:15.081Z,0.44
2018-02-18T01:58:15.081Z,0.44
2018-02-18T01:59:15.504Z,0.44
2018-02-18T02:00:15.088Z,0.37
2018-02-18T02:01:15.086Z,0.37
2018-02-18T02:02:15.471Z,0.31
2018-02-18T02:03:15.090Z,0.37
2018-02-18T02:04:15.094Z,0.37
2018-02-18T02:05:15.251Z,0.37
2018-02-18T02:06:15.272Z,0.37
2018-02-18T02:07:15.610Z,0.37
2018-02-18T02:08:15.276Z,0.37
2018-02-18T02:09:15.268Z,0.31
2018-02-18T02:10:15.341Z,0.37
2018-02-18T02:11:15.296Z,0.37
2018-02-18T02:12:15.339Z,0.37
2018-02-18T02:13:15.294Z,0.31
2018-02-18T02:14:15.187Z,0.31
2018-02-18T02:15:15.317Z,0.31
2018-02-18T02:16:15.361Z,0.31
2018-02-18T02:17:15.314Z,0.25
2018-02-18T02:18:15.308Z,0.25
2018-02-18T02:19:15.178Z,0.25
2018-02-18T02:20:15.184Z,0.25
2018-02-18T02:21:15.349Z,0.19
2018-02-18T02:22:15.346Z,0.19
2018-02-18T02:23:15.193Z,0.13
2018-02-18T02:24:15.166Z,0.19
2018-02-18T02:25:15.172Z,0.13
2018-02-18T02:26:15.207Z,0.13
2018-02-18T02:27:15.194Z,0.13
2018-02-18T02:28:15.259Z,0.13
2018-02-18T02:29:15.200Z,0.13
2018-02-18T02:30:15.227Z,0.13
2018-02-18T02:31:15.232Z,0.13
2018-02-18T02:32:15.256Z,0.06
2018-02-18T02:33:15.247Z,0.13
2018-02-18T02:34:15.235Z,0.13
2018-02-18T02:35:15.237Z,0.13
2018-02-18T02:36:15.263Z,0.06
2018-02-18T02:37:15.254Z,0.13
2018-02-18T02:38:15.554Z,0.06
2018-02-18T02:39:15.250Z,0.06
2018-02-18T02:40:15.243Z,0
2018-02-18T02:41:15.281Z,0
2018-02-18T02:42:15.253Z,0
2018-02-18T02:43:15.402Z,-0.06
2018-02-18T02:44:15.241Z,-0.06
2018-02-18T02:45:15.239Z,-0.06
2018-02-18T02:46:15.229Z,-0.06
2018-02-18T02:47:15.266Z,-0.13
2018-02-18T02:48:15.279Z,-0.13
2018-02-18T02:49:15.234Z,-0.13
2018-02-18T02:50:15.277Z,-0.19
2018-02-18T02:51:15.277Z,-0.13
2018-02-18T02:52:15.494Z,-0.13
2018-02-18T02:53:15.564Z,-0.13
2018-02-18T02:54:15.277Z,-0.13
2018-02-18T02:55:15.290Z,-0.19
2018-02-18T02:56:15.282Z,-0.13
2018-02-18T02:57:15.279Z,-0.19
2018-02-18T02:58:15.292Z,-0.19
2018-02-18T02:59:15.290Z,-0.25
2018-02-18T03:00:15.271Z,-0.19
2018-02-18T03:01:15.346Z,-0.25
2018-02-18T03:02:15.345Z,-0.19
2018-02-18T03:03:15.326Z,-0.25
2018-02-18T03:04:15.317Z,-0.25
2018-02-18T03:05:15.297Z,-0.31
2018-02-18T03:06:15.313Z,-0.25
2018-02-18T03:07:15.341Z,-0.31
2018-02-18T03:08:15.335Z,-0.31
2018-02-18T03:09:15.328Z,-0.37
2018-02-18T03:10:15.335Z,-0.37
2018-02-18T03:11:15.343Z,-0.37
2018-02-18T03:12:15.360Z,-0.44
2018-02-18T03:13:15.377Z,-0.44
2018-02-18T03:14:15.387Z,-0.44
2018-02-18T03:15:15.399Z,-0.44
2018-02-18T03:16:15.354Z,-0.5
2018-02-18T03:17:15.521Z,-0.5
2018-02-18T03:18:15.568Z,-0.5
2018-02-18T03:19:15.622Z,-0.56
2018-02-18T03:20:15.526Z,-0.56
2018-02-18T03:21:15.560Z,-0.56
2018-02-18T03:22:15.555Z,-0.56
2018-02-18T03:23:15.579Z,-0.62
2018-02-18T03:24:15.547Z,-0.69
2018-02-18T03:25:15.568Z,-0.75
2018-02-18T03:26:15.572Z,-0.69
2018-02-18T03:27:15.562Z,-0.75
2018-02-18T03:28:15.592Z,-0.75
2018-02-18T03:29:15.561Z,-0.69
2018-02-18T03:30:15.636Z,-0.81
2018-02-18T03:31:15.424Z,-0.75
2018-02-18T03:32:15.565Z,-0.81
2018-02-18T03:33:15.602Z,-0.75
2018-02-18T03:34:15.592Z,-0.81
2018-02-18T03:35:15.577Z,-0.75
2018-02-18T03:36:15.575Z,-0.81
2018-02-18T03:37:15.582Z,-0.75
2018-02-18T03:38:15.593Z,-0.81
2018-02-18T03:39:15.612Z,-0.81
2018-02-18T03:40:15.450Z,-0.75
2018-02-18T03:41:15.594Z,-0.81
2018-02-18T03:42:15.632Z,-0.81
2018-02-18T03:43:15.467Z,-0.81
2018-02-18T03:44:15.603Z,-0.81
2018-02-18T03:45:15.790Z,-0.75
2018-02-18T03:46:15.448Z,-0.88
2018-02-18T03:47:15.465Z,-0.81
2018-02-18T03:48:15.487Z,-0.88
2018-02-18T03:49:15.446Z,-0.88
2018-02-18T03:50:15.467Z,-0.88
2018-02-18T03:51:15.465Z,-0.88
2018-02-18T03:52:15.477Z,-0.88
2018-02-18T03:53:15.482Z,-0.88
2018-02-18T03:54:15.483Z,-0.88
2018-02-18T03:55:15.484Z,-0.88
2018-02-18T03:56:15.592Z,-0.88
2018-02-18T03:57:15.519Z,-0.88
2018-02-18T03:58:15.503Z,-0.88
2018-02-18T03:59:15.500Z,-0.88
2018-02-18T04:00:15.547Z,-0.88
2018-02-18T04:01:15.525Z,-0.88
2018-02-18T04:02:15.604Z,-0.88
2018-02-18T04:03:15.674Z,-0.94
2018-02-18T04:04:15.505Z,-1
2018-02-18T04:05:15.526Z,-0.94
2018-02-18T04:06:15.519Z,-1
2018-02-18T04:07:15.548Z,-1.06
2018-02-18T04:08:15.568Z,-1.06
2018-02-18T04:09:15.584Z,-1.06
2018-02-18T04:10:15.552Z,-1.06
2018-02-18T04:11:15.594Z,-1.06
2018-02-18T04:12:15.583Z,-1
2018-02-18T04:13:15.608Z,-1.06
2018-02-18T04:14:15.604Z,-1
2018-02-18T04:15:15.771Z,-1.06
2018-02-18T04:16:15.604Z,-1
2018-02-18T04:17:15.607Z,-1
2018-02-18T04:18:15.612Z,-1
2018-02-18T04:19:15.922Z,-1.06
2018-02-18T04:20:15.623Z,-1
2018-02-18T04:21:15.808Z,-1
2018-02-18T04:22:15.627Z,-1
2018-02-18T04:23:15.639Z,-1
2018-02-18T04:24:15.640Z,-1
2018-02-18T04:25:15.694Z,-1
2018-02-18T04:26:15.762Z,-1
2018-02-18T04:27:15.645Z,-1
2018-02-18T04:28:15.654Z,-1
2018-02-18T04:29:15.819Z,-1
2018-02-18T04:30:15.807Z,-1
2018-02-18T04:31:15.872Z,-1
2018-02-18T04:32:15.831Z,-1
2018-02-18T04:33:15.826Z,-1
2018-02-18T04:34:15.852Z,-1
2018-02-18T04:35:15.678Z,-1
2018-02-18T04:36:15.864Z,-1
2018-02-18T04:37:15.855Z,-1
2018-02-18T04:38:15.858Z,-1.06
2018-02-18T04:39:15.881Z,-1
2018-02-18T04:40:15.865Z,-1.06
2018-02-18T04:41:15.866Z,-1
2018-02-18T04:42:15.946Z,-1.06
2018-02-18T04:43:15.917Z,-1.06
2018-02-18T04:44:15.885Z,-1.12
2018-02-18T04:45:15.874Z,-1.12
2018-02-18T04:46:15.891Z,-1.06
2018-02-18T04:47:15.883Z,-1.06
2018-02-18T04:48:15.787Z,-1.06
2018-02-18T04:49:15.751Z,-1.06
2018-02-18T04:50:15.736Z,-1.12
2018-02-18T04:51:15.791Z,-1.06
2018-02-18T04:52:15.891Z,-1.06
2018-02-18T04:53:15.763Z,-1.06
2018-02-18T04:54:15.748Z,-1.06
2018-02-18T04:55:15.764Z,-1.06
2018-02-18T04:56:15.763Z,-1.06
2018-02-18T04:57:15.806Z,-1.06
2018-02-18T04:58:15.790Z,-1.06
2018-02-18T04:59:15.778Z,-1.06
2018-02-18T05:00:15.822Z,-1.12
2018-02-18T05:01:15.814Z,-1.06
2018-02-18T05:02:15.796Z,-1.12
2018-02-18T05:03:15.842Z,-1.06
2018-02-18T05:04:15.814Z,-1.06
2018-02-18T05:05:15.810Z,-1.06
2018-02-18T05:06:15.809Z,-1.06
2018-02-18T05:07:15.815Z,-1.06
2018-02-18T05:08:15.839Z,-1.06
2018-02-18T05:09:15.830Z,-1.06
2018-02-18T05:10:15.837Z,-1.06
2018-02-18T05:11:15.846Z,-1.06
2018-02-18T05:12:15.835Z,-1.12
2018-02-18T05:13:15.830Z,-1.12
2018-02-18T05:14:15.836Z,-1.06
2018-02-18T05:15:15.832Z,-1.06
2018-02-18T05:16:15.829Z,-1.06
2018-02-18T05:17:15.835Z,-1.06
2018-02-18T05:18:15.839Z,-1.06
2018-02-18T05:19:15.846Z,-1.06
2018-02-18T05:20:15.828Z,-1.06
2018-02-18T05:21:15.886Z,-1.06
2018-02-18T05:22:15.869Z,-1.12
2018-02-18T05:23:15.866Z,-1.06
2018-02-18T05:24:15.869Z,-1.06
2018-02-18T05:25:15.873Z,-1.06
2018-02-18T05:26:15.885Z,-1.06
2018-02-18T05:27:15.920Z,-1.06
2018-02-18T05:28:15.888Z,-1.06
2018-02-18T05:29:15.937Z,-1.06
2018-02-18T05:30:15.892Z,-1
2018-02-18T05:31:15.918Z,-1.06
2018-02-18T05:32:15.914Z,-1.06
2018-02-18T05:33:15.909Z,-1.06
2018-02-18T05:34:15.917Z,-1.06
2018-02-18T05:35:15.923Z,-1.12
2018-02-18T05:36:15.941Z,-1.06
2018-02-18T05:37:15.960Z,-1.12
2018-02-18T05:38:15.920Z,-1.12
2018-02-18T05:39:15.918Z,-1.12
2018-02-18T05:40:16.099Z,-1.06
2018-02-18T05:41:16.069Z,-1.12
2018-02-18T05:42:16.092Z,-1.12
2018-02-18T05:43:16.091Z,-1.12
2018-02-18T05:44:16.106Z,-1.12
2018-02-18T05:45:16.099Z,-1.19
2018-02-18T05:46:16.168Z,-1.12
2018-02-18T05:47:16.146Z,-1.12
2018-02-18T05:48:16.156Z,-1.12
2018-02-18T05:49:16.128Z,-1.19
2018-02-18T05:50:16.124Z,-1.12
2018-02-18T05:51:16.118Z,-1.12
2018-02-18T05:52:16.208Z,-1.19
2018-02-18T05:53:16.154Z,-1.12
2018-02-18T05:54:16.154Z,-1.19
2018-02-18T05:55:16.178Z,-1.12
2018-02-18T05:56:16.180Z,-1.19
2018-02-18T05:57:16.197Z,-1.25
2018-02-18T05:58:15.986Z,-1.25
2018-02-18T05:59:16.015Z,-1.25
2018-02-18T06:00:16.008Z,-1.31
2018-02-18T06:01:16.023Z,-1.31
2018-02-18T06:02:16.045Z,-1.37
2018-02-18T06:03:16.020Z,-1.31
2018-02-18T06:04:16.021Z,-1.31
2018-02-18T06:05:16.029Z,-1.31
2018-02-18T06:06:16.029Z,-1.37
2018-02-18T06:07:16.043Z,-1.37
2018-02-18T06:08:16.060Z,-1.37
2018-02-18T06:09:16.043Z,-1.37
2018-02-18T06:10:16.085Z,-1.37
2018-02-18T06:11:16.064Z,-1.37
2018-02-18T06:12:16.075Z,-1.37
2018-02-18T06:13:16.085Z,-1.37
2018-02-18T06:14:16.072Z,-1.37
2018-02-18T06:15:16.100Z,-1.44
2018-02-18T06:16:16.066Z,-1.37
2018-02-18T06:17:16.133Z,-1.37
2018-02-18T06:18:16.079Z,-1.37
2018-02-18T06:19:16.150Z,-1.37
2018-02-18T06:20:16.110Z,-1.37
2018-02-18T06:21:16.080Z,-1.37
2018-02-18T06:22:16.124Z,-1.37
2018-02-18T06:23:16.135Z,-1.37
2018-02-18T06:24:16.084Z,-1.37
2018-02-18T06:25:16.091Z,-1.37
2018-02-18T06:26:16.099Z,-1.37
2018-02-18T06:27:16.194Z,-1.37
2018-02-18T06:28:16.124Z,-1.37
2018-02-18T06:29:16.157Z,-1.37
2018-02-18T06:30:16.138Z,-1.37
2018-02-18T06:31:16.131Z,-1.37
2018-02-18T06:32:16.256Z,-1.37
2018-02-18T06:33:16.208Z,-1.37
2018-02-18T06:34:16.170Z,-1.37
2018-02-18T06:35:16.138Z,-1.37
2018-02-18T06:36:16.164Z,-1.37
2018-02-18T06:37:16.195Z,-1.37
2018-02-18T06:38:16.546Z,-1.31
2018-02-18T06:39:16.172Z,-1.44
2018-02-18T06:40:16.226Z,-1.37
2018-02-18T06:41:16.196Z,-1.44
2018-02-18T06:42:16.185Z,-1.44
2018-02-18T06:43:16.343Z,-1.44
2018-02-18T06:44:16.397Z,-1.5
2018-02-18T06:45:16.185Z,-1.5
2018-02-18T06:46:16.188Z,-1.44
2018-02-18T06:47:16.176Z,-1.5
2018-02-18T06:48:16.214Z,-1.44
2018-02-18T06:49:16.216Z,-1.5
2018-02-18T06:50:16.204Z,-1.44
2018-02-18T06:51:16.266Z,-1.5
2018-02-18T06:52:16.455Z,-1.44
2018-02-18T06:53:16.396Z,-1.44
2018-02-18T06:54:16.398Z,-1.44
2018-02-18T06:55:16.236Z,-1.44
2018-02-18T06:56:16.391Z,-1.44
2018-02-18T06:57:16.418Z,-1.44
2018-02-18T06:58:16.400Z,-1.44
2018-02-18T06:59:16.385Z,-1.44
2018-02-18T07:00:16.411Z,-1.37
2018-02-18T07:01:16.411Z,-1.44
2018-02-18T07:02:16.476Z,-1.44
2018-02-18T07:03:16.256Z,-1.56
2018-02-18T07:04:16.410Z,-1.5
2018-02-18T07:05:16.419Z,-1.5
2018-02-18T07:06:16.418Z,-1.5
2018-02-18T07:07:16.430Z,-1.56
2018-02-18T07:08:16.427Z,-1.56
2018-02-18T07:09:16.418Z,-1.69
2018-02-18T07:10:16.347Z,-1.62
2018-02-18T07:11:16.298Z,-1.69
2018-02-18T07:12:16.317Z,-1.75
2018-02-18T07:13:16.302Z,-1.81
2018-02-18T07:14:16.301Z,-1.75
2018-02-18T07:15:16.335Z,-1.75
2018-02-18T07:16:16.296Z,-1.75
2018-02-18T07:17:16.335Z,-1.75
2018-02-18T07:18:16.323Z,-1.69
2018-02-18T07:19:16.549Z,-1.75
2018-02-18T07:20:16.372Z,-1.75
2018-02-18T07:21:16.335Z,-1.75
2018-02-18T07:22:16.314Z,-1.75
2018-02-18T07:23:16.341Z,-1.75
2018-02-18T07:24:16.323Z,-1.75
2018-02-18T07:25:16.324Z,-1.69
2018-02-18T07:26:16.333Z,-1.75
2018-02-18T07:27:16.336Z,-1.69
2018-02-18T07:28:16.819Z,-1.75
2018-02-18T07:29:16.492Z,-1.69
2018-02-18T07:30:16.353Z,-1.62
2018-02-18T07:31:16.342Z,-1.62
2018-02-18T07:32:16.359Z,-1.62
2018-02-18T07:33:16.388Z,-1.62
2018-02-18T07:34:16.372Z,-1.69
2018-02-18T07:35:16.356Z,-1.62
2018-02-18T07:36:16.363Z,-1.62
2018-02-18T07:37:16.403Z,-1.56
2018-02-18T07:38:16.472Z,-1.62
2018-02-18T07:39:16.378Z,-1.56
2018-02-18T07:40:16.368Z,-1.56
2018-02-18T07:41:16.590Z,-1.5
2018-02-18T07:42:16.517Z,-1.5
2018-02-18T07:43:16.407Z,-1.44
2018-02-18T07:44:16.403Z,-1.44
2018-02-18T07:45:16.552Z,-1.37
2018-02-18T07:46:16.417Z,-1.44
2018-02-18T07:47:16.448Z,-1.37
2018-02-18T07:48:17.682Z,-1.37
2018-02-18T07:49:16.428Z,-1.31
2018-02-18T07:50:16.543Z,-1.31
2018-02-18T07:51:16.419Z,-1.31
2018-02-18T07:52:16.430Z,-1.25
2018-02-18T07:53:16.440Z,-1.25
2018-02-18T07:54:16.463Z,-1.25
2018-02-18T07:55:16.429Z,-1.19
2018-02-18T07:56:16.441Z,-1.19
2018-02-18T07:57:16.451Z,-1.12
2018-02-18T07:58:16.454Z,-1.19
2018-02-18T07:59:16.442Z,-1.06
2018-02-18T08:00:16.459Z,-1.06
2018-02-18T08:01:16.472Z,-1
2018-02-18T08:02:16.469Z,-1
2018-02-18T08:03:16.623Z,-1
2018-02-18T08:04:16.618Z,-0.94
2018-02-18T08:05:16.616Z,-0.94
2018-02-18T08:06:16.933Z,-0.94
2018-02-18T08:07:16.657Z,-0.88
2018-02-18T08:08:16.643Z,-0.88
2018-02-18T08:09:16.670Z,-0.81
2018-02-18T08:10:16.675Z,-0.81
2018-02-18T08:11:16.690Z,-0.75
2018-02-18T08:12:16.652Z,-0.69
2018-02-18T08:13:16.695Z,-0.69
2018-02-18T08:14:16.686Z,-0.62
2018-02-18T08:15:16.675Z,-0.62
2018-02-18T08:16:16.512Z,-0.56
2018-02-18T08:17:16.661Z,-0.5
2018-02-18T08:18:16.673Z,-0.5
2018-02-18T08:19:16.689Z,-0.5
2018-02-18T08:20:16.679Z,-0.5
2018-02-18T08:21:16.520Z,-0.5
2018-02-18T08:22:16.517Z,-0.44
2018-02-18T08:23:16.531Z,-0.44
2018-02-18T08:24:16.521Z,-0.44
2018-02-18T08:25:16.530Z,-0.44
2018-02-18T08:26:16.557Z,-0.37
2018-02-18T08:27:16.524Z,-0.37
2018-02-18T08:28:16.569Z,-0.37
2018-02-18T08:29:16.546Z,-0.31
2018-02-18T08:30:16.574Z,-0.31
2018-02-18T08:31:16.556Z,-0.31
2018-02-18T08:32:16.543Z,-0.25
2018-02-18T08:33:16.536Z,-0.25
2018-02-18T08:34:16.538Z,-0.19
2018-02-18T08:35:20.396Z,-0.13
2018-02-18T08:36:16.588Z,-0.13
2018-02-18T08:37:16.934Z,-0.06
2018-02-18T08:38:16.562Z,-0.13
2018-02-18T08:39:16.591Z,0
2018-02-18T08:40:16.580Z,0
2018-02-18T08:41:16.608Z,0
2018-02-18T08:42:16.572Z,0
2018-02-18T08:43:16.566Z,0
2018-02-18T08:44:17.322Z,0
2018-02-18T08:45:16.649Z,0.06
2018-02-18T08:46:16.598Z,0
2018-02-18T08:47:16.700Z,0.06
2018-02-18T08:48:16.599Z,0
2018-02-18T08:49:16.603Z,0.06
2018-02-18T08:50:16.601Z,0.06
2018-02-18T08:51:16.762Z,0.13
2018-02-18T08:52:16.758Z,0.13
2018-02-18T08:53:16.614Z,0.13
2018-02-18T08:54:16.632Z,0.13
2018-02-18T08:55:16.616Z,0.19
2018-02-18T08:56:16.670Z,0.13
2018-02-18T08:57:16.614Z,0.19
2018-02-18T08:58:16.632Z,0.19
2018-02-18T08:59:16.660Z,0.19
2018-02-18T09:00:16.636Z,0.19
2018-02-18T09:01:16.647Z,0.19
2018-02-18T09:02:16.664Z,0.19
2018-02-18T09:03:16.662Z,0.19
2018-02-18T09:04:16.771Z,0.19
2018-02-18T09:05:16.666Z,0.25
2018-02-18T09:06:16.895Z,0.25
2018-02-18T09:07:16.681Z,0.25
2018-02-18T09:08:16.902Z,0.25
2018-02-18T09:10:16.715Z,0.37
2018-02-18T09:11:16.705Z,0.31
2018-02-18T09:12:16.742Z,0.37
2018-02-18T09:13:16.746Z,0.44
2018-02-18T09:14:17.060Z,0.44
2018-02-18T09:15:16.936Z,0.5
2018-02-18T09:16:16.965Z,0.5
2018-02-18T09:17:16.952Z,0.5
2018-02-18T09:18:16.960Z,0.56
2018-02-18T09:19:16.978Z,0.56
2018-02-18T09:20:17.026Z,0.62
2018-02-18T09:21:17.051Z,0.62
2018-02-18T09:22:16.937Z,0.69
2018-02-18T09:23:16.912Z,0.75
2018-02-18T09:24:17.027Z,0.81
2018-02-18T09:25:16.920Z,0.81
2018-02-18T09:26:17.023Z,0.88
2018-02-18T09:27:17.032Z,0.88
2018-02-18T09:28:17.054Z,0.88
2018-02-18T09:29:16.947Z,0.94
2018-02-18T09:30:17.047Z,0.94
2018-02-18T09:31:16.951Z,0.94
2018-02-18T09:32:16.984Z,0.94
2018-02-18T09:33:16.930Z,1
2018-02-18T09:34:16.958Z,1
2018-02-18T09:35:16.977Z,1
2018-02-18T09:36:16.978Z,1
2018-02-18T09:37:16.978Z,1.06
2018-02-18T09:38:16.985Z,1.06
2018-02-18T09:39:16.798Z,1.12
2018-02-18T09:40:16.806Z,1.12
2018-02-18T09:41:16.858Z,1.12
2018-02-18T09:42:16.810Z,1.19
2018-02-18T09:43:16.813Z,1.19
2018-02-18T09:44:16.843Z,1.19
2018-02-18T09:45:16.814Z,1.25
2018-02-18T09:46:16.818Z,1.25
2018-02-18T09:47:16.861Z,1.31
2018-02-18T09:48:16.807Z,1.31
2018-02-18T09:49:16.879Z,1.31
2018-02-18T09:50:16.832Z,1.31
2018-02-18T09:51:16.849Z,1.31
2018-02-18T09:52:16.899Z,1.37
2018-02-18T09:53:16.853Z,1.37
2018-02-18T09:54:16.911Z,1.44
2018-02-18T09:55:16.837Z,1.44
2018-02-18T09:56:16.830Z,1.44
2018-02-18T09:57:16.842Z,1.5
2018-02-18T09:58:16.938Z,1.56
2018-02-18T09:59:16.894Z,1.56
2018-02-18T10:00:16.906Z,1.56
2018-02-18T10:01:16.866Z,1.62
2018-02-18T10:02:16.859Z,1.62
2018-02-18T10:03:16.864Z,1.69
2018-02-18T10:04:16.987Z,1.69
2018-02-18T10:05:16.999Z,1.75
2018-02-18T10:06:16.888Z,1.75
2018-02-18T10:07:16.906Z,1.75
2018-02-18T10:08:16.948Z,1.75
2018-02-18T10:09:16.892Z,1.81
2018-02-18T10:10:17.778Z,1.75
2018-02-18T10:11:17.009Z,1.75
2018-02-18T10:12:16.936Z,1.81
2018-02-18T10:13:16.905Z,1.87
2018-02-18T10:14:17.193Z,1.87
2018-02-18T10:15:16.899Z,1.94
2018-02-18T10:16:16.956Z,1.94
2018-02-18T10:17:16.893Z,1.94
2018-02-18T10:18:16.884Z,1.94
2018-02-18T10:19:16.876Z,1.94
2018-02-18T10:20:16.897Z,1.94
2018-02-18T10:21:17.023Z,2
2018-02-18T10:22:17.009Z,2
2018-02-18T10:23:16.992Z,2
2018-02-18T10:24:17.056Z,2
2018-02-18T10:25:17.830Z,2
2018-02-18T10:26:16.939Z,2.06
2018-02-18T10:27:17.133Z,2.06
2018-02-18T10:28:17.090Z,2.12
2018-02-18T10:29:17.370Z,2.12
2018-02-18T10:30:17.114Z,2.12
2018-02-18T10:31:17.124Z,2.12
2018-02-18T10:32:16.976Z,2.19
2018-02-18T10:33:17.203Z,2.19
2018-02-18T10:34:17.187Z,2.19
2018-02-18T10:35:17.127Z,2.19
2018-02-18T10:36:17.001Z,2.19
2018-02-18T10:37:17.187Z,2.19
2018-02-18T10:38:17.183Z,2.19
2018-02-18T10:39:17.023Z,2.25
2018-02-18T10:40:17.154Z,2.25
2018-02-18T10:41:17.019Z,2.31
2018-02-18T10:42:17.173Z,2.31
2018-02-18T10:43:17.177Z,2.37
2018-02-18T10:44:17.188Z,2.37
2018-02-18T10:45:17.061Z,2.44
2018-02-18T10:46:17.181Z,2.44
2018-02-18T10:47:17.188Z,2.5
2018-02-18T10:48:17.288Z,2.44
2018-02-18T10:49:17.167Z,2.44
2018-02-18T10:50:17.207Z,2.5
2018-02-18T10:51:17.090Z,2.56
2018-02-18T10:52:17.034Z,2.5
2018-02-18T10:53:17.041Z,2.56
2018-02-18T10:54:17.570Z,2.62
2018-02-18T10:55:17.185Z,2.62
2018-02-18T10:56:17.200Z,2.62
2018-02-18T10:57:17.230Z,2.69
2018-02-18T10:58:17.042Z,2.69
2018-02-18T10:59:17.068Z,2.56
2018-02-18T11:00:17.230Z,2.62
2018-02-18T11:01:17.252Z,2.69
2018-02-18T11:02:17.048Z,2.69
2018-02-18T11:03:17.224Z,2.75
2018-02-18T11:04:17.082Z,2.81
2018-02-18T11:05:17.094Z,2.81
2018-02-18T11:06:17.074Z,2.87
2018-02-18T11:07:17.094Z,2.94
2018-02-18T11:08:17.140Z,2.87
2018-02-18T11:09:17.093Z,2.87
2018-02-18T11:10:17.105Z,2.87
2018-02-18T11:11:17.083Z,3
2018-02-18T11:12:17.113Z,3
2018-02-18T11:13:17.105Z,3.06
2018-02-18T11:14:17.175Z,3.12
2018-02-18T11:15:17.081Z,3.19
2018-02-18T11:16:17.118Z,3.25
2018-02-18T11:17:17.104Z,3.31
2018-02-18T11:18:17.174Z,3.25
2018-02-18T11:19:17.133Z,3.37
2018-02-18T11:20:17.127Z,3.31
2018-02-18T11:21:17.182Z,3.37
2018-02-18T11:22:17.231Z,3.44
2018-02-18T11:23:17.328Z,3.44
2018-02-18T11:24:17.224Z,3.5
2018-02-18T11:25:17.159Z,3.56
2018-02-18T11:26:17.157Z,3.62
2018-02-18T11:27:17.176Z,3.62
2018-02-18T11:28:17.213Z,3.69
2018-02-18T11:29:17.168Z,3.69
2018-02-18T11:30:17.426Z,3.75
2018-02-18T11:31:17.178Z,3.75
2018-02-18T11:32:17.191Z,3.81
2018-02-18T11:33:17.287Z,3.81
2018-02-18T11:34:17.205Z,3.94
2018-02-18T11:35:17.192Z,3.87
2018-02-18T11:36:17.366Z,3.94
2018-02-18T11:37:17.212Z,3.87
2018-02-18T11:38:17.464Z,3.87
2018-02-18T11:39:17.365Z,3.87
2018-02-18T11:40:17.420Z,3.87
2018-02-18T11:41:17.434Z,3.87
2018-02-18T11:42:17.355Z,3.87
2018-02-18T11:43:17.210Z,3.94
2018-02-18T11:44:17.365Z,4
2018-02-18T11:45:17.392Z,4.06
2018-02-18T11:46:17.395Z,4.12
2018-02-18T11:47:17.376Z,4.12
2018-02-18T11:48:17.379Z,4.19
2018-02-18T11:49:17.256Z,4.25
2018-02-18T11:50:17.270Z,4.25
2018-02-18T11:51:17.297Z,4.31
2018-02-18T11:52:17.466Z,4.31
2018-02-18T11:53:17.377Z,4.37
2018-02-18T11:54:17.419Z,4.37
2018-02-18T11:55:17.399Z,4.37
2018-02-18T11:56:17.256Z,4.44
2018-02-18T11:57:17.492Z,4.44
2018-02-18T11:58:17.445Z,4.44
2018-02-18T11:59:17.281Z,4.5
2018-02-18T12:00:17.488Z,4.56
2018-02-18T12:01:17.472Z,4.56
2018-02-18T12:02:17.270Z,4.56
2018-02-18T12:03:17.517Z,4.62
2018-02-18T12:04:17.493Z,4.62
2018-02-18T12:05:17.282Z,4.62
2018-02-18T12:06:17.332Z,4.69
2018-02-18T12:07:17.300Z,4.69
2018-02-18T12:08:17.271Z,4.75
2018-02-18T12:09:17.565Z,4.81
2018-02-18T12:10:17.513Z,4.81
2018-02-18T12:11:17.321Z,4.75
2018-02-18T12:12:17.303Z,4.75
2018-02-18T12:13:17.304Z,4.75
2018-02-18T12:14:17.478Z,4.81
2018-02-18T12:15:17.336Z,4.87
2018-02-18T12:16:17.511Z,4.87
2018-02-18T12:17:17.299Z,4.87
2018-02-18T12:18:17.356Z,4.94
2018-02-18T12:19:17.393Z,4.94
2018-02-18T12:20:17.353Z,5
2018-02-18T12:21:17.313Z,5.06
2018-02-18T12:22:17.342Z,5
2018-02-18T12:23:17.375Z,5.06
2018-02-18T12:24:17.600Z,5.12
2018-02-18T12:25:17.499Z,5.12
2018-02-18T12:26:17.394Z,5.12
2018-02-18T12:27:17.524Z,5.12
2018-02-18T12:28:17.334Z,5.12
2018-02-18T12:29:17.518Z,5.06
2018-02-18T12:30:17.602Z,5.12
2018-02-18T12:31:17.370Z,5.12
2018-02-18T12:32:17.506Z,5.19
2018-02-18T12:33:17.648Z,5.19
2018-02-18T12:34:17.812Z,5.25
2018-02-18T12:35:17.387Z,5.25
2018-02-18T12:36:17.547Z,5.25
2018-02-18T12:37:17.539Z,5.25
2018-02-18T12:38:17.532Z,5.31
2018-02-18T12:39:17.407Z,5.31
2018-02-18T12:40:17.396Z,5.31
2018-02-18T12:41:17.405Z,5.37
2018-02-18T12:42:17.417Z,5.37
2018-02-18T12:43:17.385Z,5.44
2018-02-18T12:44:17.454Z,5.44
2018-02-18T12:45:17.414Z,5.5
2018-02-18T12:46:17.438Z,5.5
2018-02-18T12:47:17.773Z,5.5
2018-02-18T12:48:17.634Z,5.5
2018-02-18T12:49:17.620Z,5.5
2018-02-18T12:50:17.585Z,5.5
2018-02-18T12:51:17.729Z,5.5
2018-02-18T12:52:19.820Z,5.44
2018-02-18T12:53:17.617Z,5.31
2018-02-18T12:54:17.612Z,5.31
2018-02-18T12:55:17.605Z,5.31
2018-02-18T12:56:17.618Z,5.37
2018-02-18T12:57:17.636Z,5.44
2018-02-18T12:58:17.457Z,5.5
2018-02-18T12:59:17.499Z,5.5
2018-02-18T13:00:17.762Z,5.56
2018-02-18T13:01:17.624Z,5.56
2018-02-18T13:02:17.499Z,5.56
2018-02-18T13:03:17.590Z,5.62
2018-02-18T13:04:17.558Z,5.62
2018-02-18T13:05:17.651Z,5.69
2018-02-18T13:06:17.642Z,5.69
2018-02-18T13:07:17.513Z,5.69
2018-02-18T13:08:17.519Z,5.75
2018-02-18T13:09:17.542Z,5.81
2018-02-18T13:10:17.529Z,5.75
2018-02-18T13:11:17.696Z,5.75
2018-02-18T13:12:17.753Z,5.75
2018-02-18T13:13:17.545Z,5.75
2018-02-18T13:14:17.641Z,5.75
2018-02-18T13:15:17.567Z,5.75